createdAt,value
2022-12-19T00:00:53.407Z,103044.06
2022-12-19T00:06:19.146Z,103024.06
2022-12-19T00:11:43.159Z,103007.57
2022-12-19T00:17:06.083Z,103008.45
2022-12-19T00:22:28.772Z,102990.98
2022-12-19T00:27:52.662Z,102986.41
2022-12-19T00:33:14.882Z,102971.64
2022-12-19T00:38:37.107Z,102968.89
2022-12-19T00:44:00.005Z,102967.03
2022-12-19T00:49:23.118Z,102966.94
2022-12-19T00:54:45.457Z,102956.32
2022-12-19T01:00:07.893Z,102961.14
2022-12-19T01:05:30.740Z,102962.58
2022-12-19T01:10:55.758Z,102962.67
2022-12-19T01:16:26.350Z,102948.70
2022-12-19T01:21:48.802Z,102933.80
2022-12-19T01:27:12.048Z,102922.25
2022-12-19T01:32:35.970Z,102923.81
2022-12-19T01:38:08.628Z,102908.12
2022-12-19T01:43:24.132Z,102902.77
2022-12-19T01:48:50.254Z,102905.46
2022-12-19T01:54:20.377Z,102907.23
2022-12-19T01:59:46.263Z,102900.34
2022-12-19T02:05:08.527Z,102892.48
2022-12-19T02:10:31.427Z,102874.04
2022-12-19T02:16:25.175Z,102880.78
2022-12-19T02:22:08.545Z,102875.48
2022-12-19T02:28:12.074Z,102877.05
2022-12-19T02:33:47.622Z,102866.58
2022-12-19T02:39:17.412Z,102859.31
2022-12-19T02:50:20.097Z,102852.70
2022-12-19T02:55:46.853Z,102849.48
2022-12-19T03:01:23.130Z,102841.33
2022-12-19T03:07:02.529Z,102838.62
2022-12-19T03:12:29.820Z,102835.13
2022-12-19T03:17:58.998Z,102832.19
2022-12-19T03:23:31.625Z,102832.58
2022-12-19T03:29:01.977Z,102826.79
2022-12-19T03:34:35.136Z,102829.34
2022-12-19T03:40:01.913Z,102815.14
2022-12-19T03:45:31.595Z,102804.72
2022-12-19T03:50:59.712Z,102800.25
2022-12-19T03:56:48.340Z,102783.50
2022-12-19T04:02:14.553Z,102783.34
2022-12-19T04:07:37.831Z,102769.25
2022-12-19T04:13:19.417Z,102766.78
2022-12-19T04:18:44.089Z,102763.34
2022-12-19T04:24:17.211Z,102756.17
2022-12-19T04:29:44.142Z,102756.28
2022-12-19T04:35:06.344Z,102752.69
2022-12-19T04:40:29.297Z,102753.42
2022-12-19T04:45:57.266Z,102757.90
2022-12-19T04:51:17.426Z,102748.22
2022-12-19T04:56:40.308Z,102743.75
2022-12-19T05:02:02.636Z,102738.73
2022-12-19T05:07:26.706Z,102728.27
2022-12-19T05:12:48.986Z,102737.02
2022-12-19T05:18:11.362Z,102712.85
2022-12-19T05:23:34.816Z,102713.53
2022-12-19T05:28:57.152Z,102705.98
2022-12-19T05:34:19.426Z,102699.69
2022-12-19T05:39:41.939Z,102698.91
2022-12-19T05:45:04.186Z,102700.67
2022-12-19T05:50:27.551Z,102678.91
2022-12-19T05:55:49.810Z,102691.14
2022-12-19T06:01:20.835Z,102673.09
2022-12-19T06:06:44.337Z,102667.15
2022-12-19T06:12:06.682Z,102642.88
2022-12-19T06:17:28.989Z,102639.39
2022-12-19T06:22:51.364Z,102647.20
2022-12-19T06:28:13.567Z,102644.50
2022-12-19T06:33:37.178Z,102645.39
2022-12-19T06:39:00.336Z,102661.02
2022-12-19T06:44:24.734Z,102659.29
2022-12-19T06:49:47.115Z,102665.66
2022-12-19T06:55:09.314Z,102670.13
2022-12-19T07:00:33.128Z,102673.05
2022-12-19T07:05:56.685Z,102658.48
2022-12-19T07:11:19.057Z,102653.37
2022-12-19T07:16:43.052Z,102648.06
2022-12-19T07:22:05.811Z,102631.55
2022-12-19T07:27:35.249Z,102622.02
2022-12-19T07:32:53.049Z,102620.43
2022-12-19T07:38:18.207Z,102600.69
2022-12-19T07:43:41.150Z,102602.66
2022-12-19T07:49:03.366Z,102583.72
2022-12-19T07:54:25.629Z,102574.52
2022-12-19T07:59:48.035Z,102569.45
2022-12-19T08:05:11.686Z,102560.16
2022-12-19T08:10:34.562Z,102561.28
2022-12-19T08:15:56.972Z,102551.89
2022-12-19T08:21:20.609Z,102536.52
2022-12-19T08:26:47.606Z,102527.20
2022-12-19T08:32:08.295Z,102531.84
2022-12-19T08:37:31.324Z,102513.17
2022-12-19T08:42:54.473Z,102520.70
2022-12-19T08:48:18.673Z,102525.50
2022-12-19T08:53:44.095Z,102527.60
2022-12-19T08:59:06.848Z,102498.45
2022-12-19T09:05:57.906Z,102495.44
2022-12-19T09:09:53.685Z,102481.19
2022-12-19T09:15:16.555Z,102472.92
2022-12-19T09:20:39.160Z,102459.23
2022-12-19T09:26:02.140Z,102434.38
2022-12-19T09:31:29.221Z,102438.31
2022-12-19T09:36:51.557Z,102426.45
2022-12-19T09:42:49.396Z,102422.33
2022-12-19T09:48:23.645Z,102413.88
2022-12-19T09:54:05.564Z,102401.92
2022-12-19T10:00:05.321Z,102390.72
2022-12-19T10:06:54.415Z,102385.61
2022-12-19T10:12:42.885Z,102363.94
2022-12-19T10:17:32.275Z,102339.68
2022-12-19T10:23:17.836Z,102318.06
2022-12-19T10:28:48.022Z,102309.86
2022-12-19T10:34:33.670Z,102295.55
2022-12-19T10:40:17.604Z,102299.23
2022-12-19T10:45:46.880Z,102292.14
2022-12-19T10:51:09.190Z,102292.35
2022-12-19T10:56:38.356Z,102299.41
2022-12-19T11:02:03.118Z,102286.95
2022-12-19T11:07:33.717Z,102263.42
2022-12-19T11:16:53.677Z,102260.73
2022-12-19T11:26:42.560Z,102261.64
2022-12-19T11:29:19.779Z,102253.75
2022-12-19T11:35:36.789Z,102225.66
2022-12-19T11:41:01.871Z,102219.50
2022-12-19T11:46:38.092Z,102201.95
2022-12-19T11:57:54.124Z,102172.98
2022-12-19T12:03:39.804Z,102162.44
2022-12-19T12:11:32.294Z,102150.16
2022-12-19T12:31:01.480Z,102150.16
2022-12-19T12:31:50.631Z,102137.01
2022-12-19T12:31:55.328Z,102140.52
2022-12-19T12:35:30.605Z,102123.85
2022-12-19T12:38:27.808Z,102118.60
2022-12-19T12:44:08.488Z,102102.82
2022-12-19T12:49:54.914Z,102094.90
2022-12-19T12:55:20.507Z,102082.64
2022-12-19T13:00:48.375Z,102058.94
2022-12-19T13:06:33.591Z,102052.81
2022-12-19T13:12:26.735Z,102044.91
2022-12-19T13:17:56.855Z,102030.89
2022-12-19T13:23:45.325Z,102040.55
2022-12-19T13:29:09.307Z,102037.91
2022-12-19T13:34:42.374Z,102035.28
2022-12-19T13:40:12.961Z,102030.00
2022-12-19T13:45:47.383Z,102023.85
2022-12-19T13:51:13.844Z,102012.47
2022-12-19T13:56:37.411Z,102007.19
2022-12-19T14:02:01.299Z,102003.71
2022-12-19T14:07:47.780Z,102003.69
2022-12-19T14:13:56.535Z,102000.20
2022-12-19T14:19:01.734Z,101982.66
2022-12-19T14:24:33.016Z,101977.42
2022-12-19T14:30:27.974Z,101980.03
2022-12-19T14:36:08.488Z,101981.77
2022-12-19T14:41:08.377Z,101962.50
2022-12-19T14:52:35.818Z,101958.96
2022-12-19T14:54:40.198Z,101951.94
2022-12-19T14:58:50.840Z,101932.67
2022-12-19T15:02:54.768Z,101924.75
2022-12-19T15:08:19.638Z,101919.46
2022-12-19T15:14:55.121Z,101915.09
2022-12-19T15:19:14.594Z,101897.55
2022-12-19T15:24:37.212Z,101883.49
2022-12-19T15:29:59.876Z,101869.45
2022-12-19T15:35:25.997Z,101864.15
2022-12-19T15:40:48.531Z,101854.52
2022-12-19T15:46:15.841Z,101846.61
2022-12-19T15:51:38.595Z,101846.58
2022-12-19T15:57:03.970Z,101840.44
2022-12-19T16:03:21.102Z,101839.53
2022-12-19T16:08:00.199Z,101824.59
2022-12-19T16:13:28.001Z,101836.00
2022-12-19T16:18:50.283Z,101811.42
2022-12-19T16:24:12.698Z,101808.77
2022-12-19T16:29:41.972Z,101805.23
2022-12-19T16:35:05.710Z,101792.91
2022-12-19T16:40:31.963Z,101781.52
2022-12-19T16:46:00.761Z,101775.33
2022-12-19T16:51:36.023Z,101757.66
2022-12-19T16:57:03.478Z,101759.48
2022-12-19T17:02:49.540Z,101749.80
2022-12-19T17:08:18.100Z,101738.35
2022-12-19T17:13:40.715Z,101735.68
2022-12-19T17:19:05.254Z,101735.64
2022-12-19T17:24:29.706Z,101729.48
2022-12-19T17:29:51.998Z,101727.64
2022-12-19T17:35:16.173Z,101721.45
2022-12-19T17:40:44.337Z,101717.02
2022-12-19T17:46:06.892Z,101708.23
2022-12-19T17:51:31.518Z,101694.98
2022-12-19T17:56:53.874Z,101694.11
2022-12-19T18:02:18.444Z,101693.24
2022-12-19T18:07:41.249Z,101687.13
2022-12-19T18:13:05.954Z,101675.71
2022-12-19T18:18:38.187Z,101672.20
2022-12-19T18:24:01.630Z,101674.75
2022-12-19T18:29:24.758Z,101664.98
2022-12-19T18:34:49.067Z,101657.95
2022-12-19T18:40:20.072Z,101654.37
2022-12-19T18:45:41.602Z,101649.97
2022-12-19T18:51:04.794Z,101649.03
2022-12-19T18:56:27.539Z,101635.00
2022-12-19T19:01:52.659Z,101634.11
2022-12-19T19:07:16.568Z,101632.33
2022-12-19T19:12:39.058Z,101634.87
2022-12-19T19:18:07.147Z,101628.60
2022-12-19T19:23:31.408Z,101617.13
2022-12-19T19:28:54.316Z,101614.42
2022-12-19T19:34:29.867Z,101603.82
2022-12-19T19:39:53.181Z,101593.20
2022-12-19T19:45:16.048Z,101587.84
2022-12-19T19:50:38.391Z,101579.84
2022-12-19T19:56:10.137Z,101572.75
2022-12-19T20:01:33.297Z,101568.25
2022-12-19T20:06:57.767Z,101555.90
2022-12-19T20:12:20.453Z,101556.74
2022-12-19T20:17:44.003Z,101551.44
2022-12-19T20:23:06.327Z,101545.22
2022-12-19T20:28:28.900Z,101539.02
2022-12-19T20:33:52.803Z,101531.07
2022-12-19T20:39:15.944Z,101524.86
2022-12-19T20:44:39.393Z,101513.40
2022-12-19T20:50:02.212Z,101515.11
2022-12-19T20:55:25.771Z,101508.92
2022-12-19T21:00:48.968Z,101505.35
2022-12-19T21:06:13.668Z,101494.77
2022-12-19T21:11:37.646Z,101496.50
2022-12-19T21:16:59.983Z,101485.88
2022-12-19T21:22:22.213Z,101483.16
2022-12-19T21:27:45.037Z,101476.08
2022-12-19T21:33:09.162Z,101467.25
2022-12-19T21:38:32.042Z,101469.86
2022-12-19T21:43:55.328Z,101450.44
2022-12-19T21:49:19.106Z,101454.70
2022-12-19T21:54:41.310Z,101436.98
2022-12-19T22:00:04.116Z,101443.06
2022-12-19T22:05:26.599Z,101430.68
2022-12-19T22:10:50.991Z,101420.95
2022-12-19T22:16:13.948Z,101402.34
2022-12-19T22:21:37.364Z,101411.84
2022-12-19T22:26:59.817Z,101405.58
2022-12-19T22:32:22.567Z,101408.96
2022-12-19T22:37:44.975Z,101400.09
2022-12-19T22:43:07.426Z,101396.46
2022-12-19T22:48:29.704Z,101400.83
2022-12-19T22:53:53.156Z,101391.91
2022-12-19T22:59:19.097Z,101393.66
2022-12-19T23:04:42.118Z,101390.84
2022-12-19T23:10:04.472Z,101381.09
2022-12-19T23:15:26.930Z,101373.08
2022-12-19T23:20:49.157Z,101366.91
2022-12-19T23:26:16.043Z,101359.77
2022-12-19T23:31:37.076Z,101358.81
2022-12-19T23:37:10.631Z,101349.93
2022-12-19T23:42:24.554Z,101340.25
2022-12-19T23:47:48.105Z,101334.02
2022-12-19T23:53:10.380Z,101333.92
2022-12-19T23:58:33.341Z,101339.98
